sensor_id;sensor_type;location;lat;lon;timestamp;pressure;altitude;pressure_sealevel;temperature;humidity
66880;BME280;53789;51.392;10.234;2023-05-25T00:00:01;99046.91;;;7.13;80.00
66880;BME280;53789;51.392;10.234;2023-05-25T00:00:21;99046.91;;;7.13;78.79
66880;BME280;53789;51.392;10.234;2023-05-25T00:00:41;99046.66;;;7.14;78.96
66880;BME280;53789;51.392;10.234;2023-05-25T00:01:02;99049.38;;;7.14;79.52
66880;BME280;53789;51.392;10.234;2023-05-25T00:01:22;99047.75;;;7.13;79.12
66880;BME280;53789;51.392;10.234;2023-05-25T00:01:42;99045.84;;;7.14;80.10
66880;BME280;53789;51.392;10.234;2023-05-25T00:02:03;99047.75;;;7.13;79.46
66880;BME280;53789;51.392;10.234;2023-05-25T00:02:23;99048.56;;;7.14;79.39
66880;BME280;53789;51.392;10.234;2023-05-25T00:02:44;99054.03;;;7.14;79.89
66880;BME280;53789;51.392;10.234;2023-05-25T00:03:04;99052.13;;;7.14;79.04
66880;BME280;53789;51.392;10.234;2023-05-25T00:03:24;99055.69;;;7.15;79.59
66880;BME280;53789;51.392;10.234;2023-05-25T00:03:45;99049.38;;;7.14;78.96
66880;BME280;53789;51.392;10.234;2023-05-25T00:04:05;99051.03;;;7.15;78.90
66880;BME280;53789;51.392;10.234;2023-05-25T00:04:25;99043.91;;;7.14;79.74
66880;BME280;53789;51.392;10.234;2023-05-25T00:04:45;99051.03;;;7.15;79.21
66880;BME280;53789;51.392;10.234;2023-05-25T00:05:07;99051.03;;;7.15;79.71
66880;BME280;53789;51.392;10.234;2023-05-25T00:05:28;99052.97;;;7.15;79.08
66880;BME280;53789;51.392;10.234;2023-05-25T00:05:48;99049.38;;;7.14;78.38
66880;BME280;53789;51.392;10.234;2023-05-25T00:06:08;99052.13;;;7.14;79.00
66880;BME280;53789;51.392;10.234;2023-05-25T00:06:30;99057.59;;;7.14;78.59
66880;BME280;53789;51.392;10.234;2023-05-25T00:06:50;99055.69;;;7.15;78.49
66880;BME280;53789;51.392;10.234;2023-05-25T00:07:11;99053.22;;;7.13;78.47
66880;BME280;53789;51.392;10.234;2023-05-25T00:07:31;99053.50;;;7.12;78.02
66880;BME280;53789;51.392;10.234;2023-05-25T00:07:52;99048.84;;;7.12;78.72
66880;BME280;53789;51.392;10.234;2023-05-25T00:08:13;99051.56;;;7.12;77.61
66880;BME280;53789;51.392;10.234;2023-05-25T00:08:33;99057.03;;;7.12;77.55
66880;BME280;53789;51.392;10.234;2023-05-25T00:08:53;99053.50;;;7.12;77.75
66880;BME280;53789;51.392;10.234;2023-05-25T00:09:14;99051.56;;;7.12;77.68
66880;BME280;53789;51.392;10.234;2023-05-25T00:09:34;99056.22;;;7.12;78.00
66880;BME280;53789;51.392;10.234;2023-05-25T00:09:54;99049.91;;;7.11;78.18
66880;BME280;53789;51.392;10.234;2023-05-25T00:10:14;99058.13;;;7.11;78.65
66880;BME280;53789;51.392;10.234;2023-05-25T00:10:35;99049.91;;;7.11;78.87
66880;BME280;53789;51.392;10.234;2023-05-25T00:10:55;99051.03;;;7.10;78.50
66880;BME280;53789;51.392;10.234;2023-05-25T00:11:15;99049.91;;;7.11;77.93
66880;BME280;53789;51.392;10.234;2023-05-25T00:11:36;99047.44;;;7.09;78.17
66880;BME280;53789;51.392;10.234;2023-05-25T00:11:56;99046.38;;;7.11;78.05
66880;BME280;53789;51.392;10.234;2023-05-25T00:12:16;99042.81;;;7.10;78.21
66880;BME280;53789;51.392;10.234;2023-05-25T00:12:37;99046.38;;;7.11;78.59
66880;BME280;53789;51.392;10.234;2023-05-25T00:12:57;99048.28;;;7.10;78.29
66880;BME280;53789;51.392;10.234;2023-05-25T00:13:17;99048.28;;;7.10;78.10
66880;BME280;53789;51.392;10.234;2023-05-25T00:13:38;99053.75;;;7.10;78.17
66880;BME280;53789;51.392;10.234;2023-05-25T00:13:58;99048.28;;;7.10;78.63
66880;BME280;53789;51.392;10.234;2023-05-25T00:14:18;99051.03;;;7.10;78.84
66880;BME280;53789;51.392;10.234;2023-05-25T00:14:39;99045.81;;;7.08;78.39
66880;BME280;53789;51.392;10.234;2023-05-25T00:14:59;99054.84;;;7.09;79.08
66880;BME280;53789;51.392;10.234;2023-05-25T00:15:19;99048.81;;;7.07;78.69
66880;BME280;53789;51.392;10.234;2023-05-25T00:15:40;99052.09;;;7.09;78.19
66880;BME280;53789;51.392;10.234;2023-05-25T00:16:00;99050.44;;;7.08;79.21
66880;BME280;53789;51.392;10.234;2023-05-25T00:16:20;99053.75;;;7.10;77.84
66880;BME280;53789;51.392;10.234;2023-05-25T00:16:40;99046.09;;;7.07;78.34
66880;BME280;53789;51.392;10.234;2023-05-25T00:17:01;99050.44;;;7.08;77.79
66880;BME280;53789;51.392;10.234;2023-05-25T00:17:21;99052.09;;;7.09;77.91
66880;BME280;53789;51.392;10.234;2023-05-25T00:17:41;99052.09;;;7.09;78.81
66880;BME280;53789;51.392;10.234;2023-05-25T00:18:02;99043.09;;;7.08;77.99
66880;BME280;53789;51.392;10.234;2023-05-25T00:18:22;99044.97;;;7.08;78.11
66880;BME280;53789;51.392;10.234;2023-05-25T00:18:42;99047.72;;;7.08;78.11
66880;BME280;53789;51.392;10.234;2023-05-25T00:19:05;99047.72;;;7.08;78.20
66880;BME280;53789;51.392;10.234;2023-05-25T00:19:25;99044.16;;;7.07;78.24
66880;BME280;53789;51.392;10.234;2023-05-25T00:19:45;99049.63;;;7.07;77.09
66880;BME280;53789;51.392;10.234;2023-05-25T00:20:07;99051.56;;;7.07;77.59
66880;BME280;53789;51.392;10.234;2023-05-25T00:20:28;99046.09;;;7.07;78.14
66880;BME280;53789;51.392;10.234;2023-05-25T00:20:48;99049.91;;;7.06;77.79
66880;BME280;53789;51.392;10.234;2023-05-25T00:21:09;99041.69;;;7.06;78.00
66880;BME280;53789;51.392;10.234;2023-05-25T00:21:29;99051.81;;;7.05;77.67
66880;BME280;53789;51.392;10.234;2023-05-25T00:21:49;99043.63;;;7.05;77.65
66880;BME280;53789;51.392;10.234;2023-05-25T00:22:10;99044.44;;;7.06;77.41
66880;BME280;53789;51.392;10.234;2023-05-25T00:22:31;99045.50;;;7.05;77.47
66880;BME280;53789;51.392;10.234;2023-05-25T00:22:51;99046.34;;;7.05;77.59
66880;BME280;53789;51.392;10.234;2023-05-25T00:23:11;99047.16;;;7.06;77.94
66880;BME280;53789;51.392;10.234;2023-05-25T00:23:32;99042.78;;;7.05;76.85
66880;BME280;53789;51.392;10.234;2023-05-25T00:23:52;99043.88;;;7.04;78.25
66880;BME280;53789;51.392;10.234;2023-05-25T00:24:13;99043.03;;;7.03;77.88
66880;BME280;53789;51.392;10.234;2023-05-25T00:24:33;99044.69;;;7.04;77.45
66880;BME280;53789;51.392;10.234;2023-05-25T00:24:53;99046.63;;;7.04;77.29
66880;BME280;53789;51.392;10.234;2023-05-25T00:25:14;99042.22;;;7.03;77.33
66880;BME280;53789;51.392;10.234;2023-05-25T00:25:34;99047.69;;;7.03;77.37
66880;BME280;53789;51.392;10.234;2023-05-25T00:25:54;99043.31;;;7.02;77.16
66880;BME280;53789;51.392;10.234;2023-05-25T00:26:14;99050.69;;;7.01;76.78
66880;BME280;53789;51.392;10.234;2023-05-25T00:26:35;99048.22;;;7.00;77.51
66880;BME280;53789;51.392;10.234;2023-05-25T00:26:56;99045.47;;;7.00;76.69
66880;BME280;53789;51.392;10.234;2023-05-25T00:27:16;99053.69;;;7.00;76.89
66880;BME280;53789;51.392;10.234;2023-05-25T00:27:37;99041.09;;;6.99;76.91
66880;BME280;53789;51.392;10.234;2023-05-25T00:27:57;99046.56;;;6.99;77.30
66880;BME280;53789;51.392;10.234;2023-05-25T00:28:17;99047.38;;;6.99;77.33
66880;BME280;53789;51.392;10.234;2023-05-25T00:28:37;99046.56;;;6.99;76.77
66880;BME280;53789;51.392;10.234;2023-05-25T00:28:58;99053.13;;;6.98;77.70
66880;BME280;53789;51.392;10.234;2023-05-25T00:29:18;99049.31;;;6.99;77.59
66880;BME280;53789;51.392;10.234;2023-05-25T00:29:38;99051.47;;;6.97;77.71
66880;BME280;53789;51.392;10.234;2023-05-25T00:29:59;99052.28;;;6.97;77.09
66880;BME280;53789;51.392;10.234;2023-05-25T00:30:19;99048.75;;;6.97;76.81
66880;BME280;53789;51.392;10.234;2023-05-25T00:30:39;99055.03;;;6.97;76.31
66880;BME280;53789;51.392;10.234;2023-05-25T00:31:00;99057.78;;;6.97;76.71
66880;BME280;53789;51.392;10.234;2023-05-25T00:31:20;99053.13;;;6.98;76.43
66880;BME280;53789;51.392;10.234;2023-05-25T00:31:40;99053.13;;;6.98;76.72
66880;BME280;53789;51.392;10.234;2023-05-25T00:32:01;99054.22;;;6.97;76.94
66880;BME280;53789;51.392;10.234;2023-05-25T00:32:21;99062.44;;;6.97;76.98
66880;BME280;53789;51.392;10.234;2023-05-25T00:32:42;99057.78;;;6.97;77.41
66880;BME280;53789;51.392;10.234;2023-05-25T00:33:02;99051.75;;;6.95;77.14
66880;BME280;53789;51.392;10.234;2023-05-25T00:33:22;99052.56;;;6.96;76.67
66880;BME280;53789;51.392;10.234;2023-05-25T00:33:42;99049.56;;;6.97;76.46
66880;BME280;53789;51.392;10.234;2023-05-25T00:34:03;99047.91;;;6.96;77.28
66880;BME280;53789;51.392;10.234;2023-05-25T00:34:23;99050.91;;;6.95;77.32
66880;BME280;53789;51.392;10.234;2023-05-25T00:34:44;99052.00;;;6.94;77.70
66880;BME280;53789;51.392;10.234;2023-05-25T00:35:04;99049.28;;;6.94;76.97
66880;BME280;53789;51.392;10.234;2023-05-25T00:35:24;99047.63;;;6.93;77.67
66880;BME280;53789;51.392;10.234;2023-05-25T00:35:45;99044.06;;;6.92;76.99
66880;BME280;53789;51.392;10.234;2023-05-25T00:36:05;99043.22;;;6.91;76.67
66880;BME280;53789;51.392;10.234;2023-05-25T00:36:26;99044.34;;;6.90;76.81
66880;BME280;53789;51.392;10.234;2023-05-25T00:36:46;99045.41;;;6.89;77.20
66880;BME280;53789;51.392;10.234;2023-05-25T00:37:07;99039.94;;;6.89;77.57
66880;BME280;53789;51.392;10.234;2023-05-25T00:37:27;99039.94;;;6.89;76.96
66880;BME280;53789;51.392;10.234;2023-05-25T00:37:47;99042.94;;;6.88;76.75
66880;BME280;53789;51.392;10.234;2023-05-25T00:38:12;99051.97;;;6.88;76.95
66880;BME280;53789;51.392;10.234;2023-05-25T00:38:32;99047.56;;;6.87;76.45
66880;BME280;53789;51.392;10.234;2023-05-25T00:38:52;99044.84;;;6.87;76.53
66880;BME280;53789;51.392;10.234;2023-05-25T00:39:18;99044.84;;;6.87;77.28
66880;BME280;53789;51.392;10.234;2023-05-25T00:39:38;99035.00;;;6.86;77.23
66880;BME280;53789;51.392;10.234;2023-05-25T00:39:58;99046.75;;;6.87;76.60
66880;BME280;53789;51.392;10.234;2023-05-25T00:40:19;99042.38;;;6.86;76.78
66880;BME280;53789;51.392;10.234;2023-05-25T00:40:40;99038.81;;;6.85;76.54
66880;BME280;53789;51.392;10.234;2023-05-25T00:41:00;99048.69;;;6.86;77.24
66880;BME280;53789;51.392;10.234;2023-05-25T00:41:21;99039.63;;;6.86;76.57
66880;BME280;53789;51.392;10.234;2023-05-25T00:41:46;99043.22;;;6.86;76.63
66880;BME280;53789;51.392;10.234;2023-05-25T00:42:07;99045.34;;;6.84;76.31
66880;BME280;53789;51.392;10.234;2023-05-25T00:42:28;99038.81;;;6.85;77.02
66880;BME280;53789;51.392;10.234;2023-05-25T00:42:50;99049.75;;;6.85;76.05
66880;BME280;53789;51.392;10.234;2023-05-25T00:43:11;99041.81;;;6.84;76.83
66880;BME280;53789;51.392;10.234;2023-05-25T00:43:32;99036.34;;;6.84;75.79
66880;BME280;53789;51.392;10.234;2023-05-25T00:43:52;99042.06;;;6.82;76.30
66880;BME280;53789;51.392;10.234;2023-05-25T00:44:13;99049.72;;;6.80;76.45
66880;BME280;53789;51.392;10.234;2023-05-25T00:44:34;99049.16;;;6.78;76.52
66880;BME280;53789;51.392;10.234;2023-05-25T00:44:54;99047.50;;;6.77;76.52
66880;BME280;53789;51.392;10.234;2023-05-25T00:45:15;99040.66;;;6.74;76.93
66880;BME280;53789;51.392;10.234;2023-05-25T00:45:35;99049.94;;;6.73;76.90
66880;BME280;53789;51.392;10.234;2023-05-25T00:45:56;99051.00;;;6.72;76.35
66880;BME280;53789;51.392;10.234;2023-05-25T00:46:17;99044.19;;;6.70;76.59
66880;BME280;53789;51.392;10.234;2023-05-25T00:46:37;99051.53;;;6.69;77.20
66880;BME280;53789;51.392;10.234;2023-05-25T00:46:58;99044.44;;;6.68;77.15
66880;BME280;53789;51.392;10.234;2023-05-25T00:47:18;99041.72;;;6.68;77.24
66880;BME280;53789;51.392;10.234;2023-05-25T00:47:39;99041.97;;;6.67;77.11
66880;BME280;53789;51.392;10.234;2023-05-25T00:47:59;99044.94;;;6.65;77.28
66880;BME280;53789;51.392;10.234;2023-05-25T00:48:21;99043.06;;;6.66;77.27
66880;BME280;53789;51.392;10.234;2023-05-25T00:48:42;99042.19;;;6.65;76.53
66880;BME280;53789;51.392;10.234;2023-05-25T00:49:03;99042.19;;;6.65;76.57
66880;BME280;53789;51.392;10.234;2023-05-25T00:49:24;99043.06;;;6.66;76.72
66880;BME280;53789;51.392;10.234;2023-05-25T00:49:44;99041.38;;;6.65;77.25
66880;BME280;53789;51.392;10.234;2023-05-25T00:50:08;99039.47;;;6.65;77.37
66880;BME280;53789;51.392;10.234;2023-05-25T00:50:40;99045.78;;;6.66;76.72
66880;BME280;53789;51.392;10.234;2023-05-25T00:51:01;99044.94;;;6.65;76.40
66880;BME280;53789;51.392;10.234;2023-05-25T00:51:22;99046.84;;;6.65;77.11
66880;BME280;53789;51.392;10.234;2023-05-25T00:51:46;99047.66;;;6.65;77.27
66880;BME280;53789;51.392;10.234;2023-05-25T00:52:07;99044.13;;;6.65;76.92
66880;BME280;53789;51.392;10.234;2023-05-25T00:52:28;99042.47;;;6.64;76.33
66880;BME280;53789;51.392;10.234;2023-05-25T00:52:49;99044.13;;;6.65;76.49
66880;BME280;53789;51.392;10.234;2023-05-25T00:53:10;99046.03;;;6.64;76.96
66880;BME280;53789;51.392;10.234;2023-05-25T00:53:31;99047.94;;;6.64;77.12
66880;BME280;53789;51.392;10.234;2023-05-25T00:53:51;99042.47;;;6.64;77.26
66880;BME280;53789;51.392;10.234;2023-05-25T00:54:13;99048.19;;;6.62;76.95
66880;BME280;53789;51.392;10.234;2023-05-25T00:54:33;99046.31;;;6.63;76.27
66880;BME280;53789;51.392;10.234;2023-05-25T00:54:57;99051.78;;;6.63;76.72
66880;BME280;53789;51.392;10.234;2023-05-25T00:55:20;99047.94;;;6.64;76.81
66880;BME280;53789;51.392;10.234;2023-05-25T00:55:49;99047.38;;;6.62;77.00
66880;BME280;53789;51.392;10.234;2023-05-25T00:56:25;99044.66;;;6.62;76.86
66880;BME280;53789;51.392;10.234;2023-05-25T00:56:55;99047.38;;;6.62;76.75
66880;BME280;53789;51.392;10.234;2023-05-25T00:57:17;99037.53;;;6.61;76.91
66880;BME280;53789;51.392;10.234;2023-05-25T00:57:41;99042.72;;;6.62;77.32
66880;BME280;53789;51.392;10.234;2023-05-25T00:58:03;99045.72;;;6.61;77.06
66880;BME280;53789;51.392;10.234;2023-05-25T00:58:26;99045.72;;;6.61;76.54
66880;BME280;53789;51.392;10.234;2023-05-25T00:58:52;99036.97;;;6.59;77.07
66880;BME280;53789;51.392;10.234;2023-05-25T00:59:27;99039.97;;;6.57;76.79
66880;BME280;53789;51.392;10.234;2023-05-25T00:59:50;99039.16;;;6.56;76.74
66880;BME280;53789;51.392;10.234;2023-05-25T01:00:14;99033.94;;;6.55;77.30
66880;BME280;53789;51.392;10.234;2023-05-25T01:00:36;99035.84;;;6.54;77.08
66880;BME280;53789;51.392;10.234;2023-05-25T01:01:02;99040.50;;;6.54;76.92
66880;BME280;53789;51.392;10.234;2023-05-25T01:01:24;99031.44;;;6.53;76.85
66880;BME280;53789;51.392;10.234;2023-05-25T01:01:48;99039.66;;;6.53;77.52
66880;BME280;53789;51.392;10.234;2023-05-25T01:02:11;99029.81;;;6.52;76.83
66880;BME280;53789;51.392;10.234;2023-05-25T01:02:32;99032.56;;;6.52;77.23
66880;BME280;53789;51.392;10.234;2023-05-25T01:02:55;99033.38;;;6.53;76.77
66880;BME280;53789;51.392;10.234;2023-05-25T01:03:20;99037.19;;;6.52;77.40
66880;BME280;53789;51.392;10.234;2023-05-25T01:03:45;99038.03;;;6.52;76.95
66880;BME280;53789;51.392;10.234;2023-05-25T01:04:08;99031.72;;;6.52;77.41
66880;BME280;53789;51.392;10.234;2023-05-25T01:04:33;99026.25;;;6.52;76.44
66880;BME280;53789;51.392;10.234;2023-05-25T01:04:56;99026.25;;;6.52;77.27
66880;BME280;53789;51.392;10.234;2023-05-25T01:05:19;99030.63;;;6.53;76.46
66880;BME280;53789;51.392;10.234;2023-05-25T01:05:42;99022.69;;;6.51;77.09
66880;BME280;53789;51.392;10.234;2023-05-25T01:06:11;99031.97;;;6.50;77.27
66880;BME280;53789;51.392;10.234;2023-05-25T01:06:35;99031.16;;;6.50;77.53
66880;BME280;53789;51.392;10.234;2023-05-25T01:06:58;99033.06;;;6.49;77.69
66880;BME280;53789;51.392;10.234;2023-05-25T01:07:22;99030.34;;;6.49;77.36
66880;BME280;53789;51.392;10.234;2023-05-25T01:07:43;99030.59;;;6.48;77.21
66880;BME280;53789;51.392;10.234;2023-05-25T01:08:07;99025.13;;;6.48;76.95
66880;BME280;53789;51.392;10.234;2023-05-25T01:08:33;99034.41;;;6.47;76.69
66880;BME280;53789;51.392;10.234;2023-05-25T01:09:00;99034.16;;;6.48;76.32
66880;BME280;53789;51.392;10.234;2023-05-25T01:09:24;99030.59;;;6.48;76.46
66880;BME280;53789;51.392;10.234;2023-05-25T01:09:47;99031.69;;;6.47;76.59
66880;BME280;53789;51.392;10.234;2023-05-25T01:10:11;99035.75;;;6.44;76.49
66880;BME280;53789;51.392;10.234;2023-05-25T01:10:37;99035.75;;;6.44;76.51
66880;BME280;53789;51.392;10.234;2023-05-25T01:11:02;99031.13;;;6.45;76.97
66880;BME280;53789;51.392;10.234;2023-05-25T01:11:28;99036.84;;;6.43;76.70
66880;BME280;53789;51.392;10.234;2023-05-25T01:11:52;99037.94;;;6.42;76.24
66880;BME280;53789;51.392;10.234;2023-05-25T01:12:14;99036.28;;;6.41;76.40
66880;BME280;53789;51.392;10.234;2023-05-25T01:12:36;99039.00;;;6.41;77.09
66880;BME280;53789;51.392;10.234;2023-05-25T01:13:00;99034.63;;;6.40;76.98
66880;BME280;53789;51.392;10.234;2023-05-25T01:13:21;99031.88;;;6.40;76.69
66880;BME280;53789;51.392;10.234;2023-05-25T01:13:42;99037.34;;;6.40;76.15
66880;BME280;53789;51.392;10.234;2023-05-25T01:14:03;99034.63;;;6.40;76.55
66880;BME280;53789;51.392;10.234;2023-05-25T01:14:25;99036.53;;;6.39;76.57
66880;BME280;53789;51.392;10.234;2023-05-25T01:14:46;99037.59;;;6.38;76.97
66880;BME280;53789;51.392;10.234;2023-05-25T01:15:08;99032.13;;;6.38;76.61
66880;BME280;53789;51.392;10.234;2023-05-25T01:15:29;99028.59;;;6.38;76.82
66880;BME280;53789;51.392;10.234;2023-05-25T01:15:50;99026.69;;;6.38;76.52
66880;BME280;53789;51.392;10.234;2023-05-25T01:16:11;99032.13;;;6.38;76.67
66880;BME280;53789;51.392;10.234;2023-05-25T01:16:32;99037.59;;;6.38;76.67
66880;BME280;53789;51.392;10.234;2023-05-25T01:16:53;99030.50;;;6.37;76.54
66880;BME280;53789;51.392;10.234;2023-05-25T01:17:14;99032.66;;;6.35;76.46
66880;BME280;53789;51.392;10.234;2023-05-25T01:17:34;99031.84;;;6.35;76.92
66880;BME280;53789;51.392;10.234;2023-05-25T01:17:56;99033.78;;;6.34;76.37
66880;BME280;53789;51.392;10.234;2023-05-25T01:18:16;99038.38;;;6.34;76.77
66880;BME280;53789;51.392;10.234;2023-05-25T01:18:36;99028.56;;;6.33;76.19
66880;BME280;53789;51.392;10.234;2023-05-25T01:18:57;99038.09;;;6.30;76.91
66880;BME280;53789;51.392;10.234;2023-05-25T01:19:17;99035.63;;;6.29;76.92
66880;BME280;53789;51.392;10.234;2023-05-25T01:19:37;99040.25;;;6.28;76.14
66880;BME280;53789;51.392;10.234;2023-05-25T01:19:58;99032.88;;;6.29;76.61
66880;BME280;53789;51.392;10.234;2023-05-25T01:20:18;99034.78;;;6.28;76.68
66880;BME280;53789;51.392;10.234;2023-05-25T01:20:52;99035.63;;;6.29;76.71
66880;BME280;53789;51.392;10.234;2023-05-25T01:21:28;99036.69;;;6.28;76.19
66880;BME280;53789;51.392;10.234;2023-05-25T01:22:18;99042.16;;;6.28;76.71
66880;BME280;53789;51.392;10.234;2023-05-25T01:23:09;99035.88;;;6.27;76.11
66880;BME280;53789;51.392;10.234;2023-05-25T01:23:34;99034.22;;;6.26;76.85
66880;BME280;53789;51.392;10.234;2023-05-25T01:24:18;99036.16;;;6.26;77.11
66880;BME280;53789;51.392;10.234;2023-05-25T01:24:58;99032.56;;;6.25;76.65
66880;BME280;53789;51.392;10.234;2023-05-25T01:25:44;99036.41;;;6.24;76.37
66880;BME280;53789;51.392;10.234;2023-05-25T01:26:12;99031.75;;;6.25;76.69
66880;BME280;53789;51.392;10.234;2023-05-25T01:26:46;99037.22;;;6.25;76.72
66880;BME280;53789;51.392;10.234;2023-05-25T01:27:24;99035.56;;;6.24;76.96
66880;BME280;53789;51.392;10.234;2023-05-25T01:27:54;99035.81;;;6.22;76.59
66880;BME280;53789;51.392;10.234;2023-05-25T01:28:24;99035.81;;;6.22;76.92
66880;BME280;53789;51.392;10.234;2023-05-25T01:28:51;99037.75;;;6.21;77.23
66880;BME280;53789;51.392;10.234;2023-05-25T01:29:13;99037.75;;;6.21;76.65
66880;BME280;53789;51.392;10.234;2023-05-25T01:29:39;99039.66;;;6.21;77.37
66880;BME280;53789;51.392;10.234;2023-05-25T01:30:01;99039.91;;;6.19;77.68
66880;BME280;53789;51.392;10.234;2023-05-25T01:30:25;99039.06;;;6.19;77.32
66880;BME280;53789;51.392;10.234;2023-05-25T01:30:48;99038.25;;;6.18;77.30
66880;BME280;53789;51.392;10.234;2023-05-25T01:31:09;99040.97;;;6.18;76.75
66880;BME280;53789;51.392;10.234;2023-05-25T01:31:32;99047.53;;;6.17;76.31
66880;BME280;53789;51.392;10.234;2023-05-25T01:31:57;99042.06;;;6.17;77.13
66880;BME280;53789;51.392;10.234;2023-05-25T01:32:19;99041.25;;;6.17;76.09
66880;BME280;53789;51.392;10.234;2023-05-25T01:32:42;99046.44;;;6.18;76.45
66880;BME280;53789;51.392;10.234;2023-05-25T01:33:03;99048.34;;;6.18;76.33
66880;BME280;53789;51.392;10.234;2023-05-25T01:33:24;99043.72;;;6.18;76.79
66880;BME280;53789;51.392;10.234;2023-05-25T01:33:49;99040.97;;;6.18;77.30
66880;BME280;53789;51.392;10.234;2023-05-25T01:34:12;99042.66;;;6.19;76.41
66880;BME280;53789;51.392;10.234;2023-05-25T01:34:35;99040.72;;;6.20;76.97
66880;BME280;53789;51.392;10.234;2023-05-25T01:34:59;99049.47;;;6.22;76.54
66880;BME280;53789;51.392;10.234;2023-05-25T01:35:20;99041.28;;;6.22;75.98
66880;BME280;53789;51.392;10.234;2023-05-25T01:35:43;99046.47;;;6.24;76.15
66880;BME280;53789;51.392;10.234;2023-05-25T01:36:05;99045.41;;;6.25;76.57
66880;BME280;53789;51.392;10.234;2023-05-25T01:36:25;99043.50;;;6.25;77.08
66880;BME280;53789;51.392;10.234;2023-05-25T01:36:45;99041.59;;;6.26;77.28
66880;BME280;53789;51.392;10.234;2023-05-25T01:37:06;99044.91;;;6.28;77.02
66880;BME280;53789;51.392;10.234;2023-05-25T01:37:26;99046.56;;;6.29;77.13
66880;BME280;53789;51.392;10.234;2023-05-25T01:37:49;99042.16;;;6.28;76.92
66880;BME280;53789;51.392;10.234;2023-05-25T01:38:11;99045.44;;;6.30;77.77
66880;BME280;53789;51.392;10.234;2023-05-25T01:38:32;99041.91;;;6.29;77.94
66880;BME280;53789;51.392;10.234;2023-05-25T01:38:53;99041.63;;;6.31;77.64
66880;BME280;53789;51.392;10.234;2023-05-25T01:39:14;99043.31;;;6.32;77.47
66880;BME280;53789;51.392;10.234;2023-05-25T01:39:34;99038.66;;;6.32;77.26
66880;BME280;53789;51.392;10.234;2023-05-25T01:39:54;99043.84;;;6.34;77.54
66880;BME280;53789;51.392;10.234;2023-05-25T01:40:15;99047.44;;;6.34;76.86
66880;BME280;53789;51.392;10.234;2023-05-25T01:40:35;99043.84;;;6.34;77.38
66880;BME280;53789;51.392;10.234;2023-05-25T01:40:55;99043.59;;;6.35;77.13
66880;BME280;53789;51.392;10.234;2023-05-25T01:41:16;99039.78;;;6.36;77.04
66880;BME280;53789;51.392;10.234;2023-05-25T01:41:36;99043.34;;;6.37;77.59
66880;BME280;53789;51.392;10.234;2023-05-25T01:41:56;99042.25;;;6.38;77.75
66880;BME280;53789;51.392;10.234;2023-05-25T01:42:16;99042.81;;;6.40;77.61
66880;BME280;53789;51.392;10.234;2023-05-25T01:42:37;99045.53;;;6.40;77.47
66880;BME280;53789;51.392;10.234;2023-05-25T01:42:57;99041.72;;;6.41;77.58
66880;BME280;53789;51.392;10.234;2023-05-25T01:43:17;99038.19;;;6.41;77.95
66880;BME280;53789;51.392;10.234;2023-05-25T01:43:38;99042.56;;;6.42;76.75
66880;BME280;53789;51.392;10.234;2023-05-25T01:43:58;99044.47;;;6.41;76.54
66880;BME280;53789;51.392;10.234;2023-05-25T01:44:19;99043.41;;;6.42;76.59
66880;BME280;53789;51.392;10.234;2023-05-25T01:44:40;99050.53;;;6.43;76.74
66880;BME280;53789;51.392;10.234;2023-05-25T01:45:00;99046.13;;;6.42;76.61
66880;BME280;53789;51.392;10.234;2023-05-25T01:45:21;99040.41;;;6.44;77.11
66880;BME280;53789;51.392;10.234;2023-05-25T01:45:41;99043.94;;;6.44;76.58
66880;BME280;53789;51.392;10.234;2023-05-25T01:46:21;99037.41;;;6.45;77.27
66880;BME280;53789;51.392;10.234;2023-05-25T01:46:42;99039.31;;;6.45;76.20
66880;BME280;53789;51.392;10.234;2023-05-25T01:47:27;99031.94;;;6.45;76.52
66880;BME280;53789;51.392;10.234;2023-05-25T01:48:17;99041.28;;;6.49;76.67
66880;BME280;53789;51.392;10.234;2023-05-25T01:48:53;99042.09;;;6.50;76.44
66880;BME280;53789;51.392;10.234;2023-05-25T01:49:26;99039.09;;;6.51;76.28
66880;BME280;53789;51.392;10.234;2023-05-25T01:49:55;99043.47;;;6.52;75.91
66880;BME280;53789;51.392;10.234;2023-05-25T01:50:53;99041.56;;;6.53;76.36
66880;BME280;53789;51.392;10.234;2023-05-25T01:51:25;99045.97;;;6.54;76.29
66880;BME280;53789;51.392;10.234;2023-05-25T01:52:40;99037.50;;;6.55;76.53
66880;BME280;53789;51.392;10.234;2023-05-25T01:53:17;99043.78;;;6.56;75.76
66880;BME280;53789;51.392;10.234;2023-05-25T01:54:00;99038.31;;;6.56;76.42
66880;BME280;53789;51.392;10.234;2023-05-25T01:54:34;99045.44;;;6.57;76.28
66880;BME280;53789;51.392;10.234;2023-05-25T01:55:18;99046.25;;;6.57;75.66
66880;BME280;53789;51.392;10.234;2023-05-25T01:55:50;99046.25;;;6.57;76.20
66880;BME280;53789;51.392;10.234;2023-05-25T01:56:13;99047.91;;;6.59;76.64
66880;BME280;53789;51.392;10.234;2023-05-25T01:56:35;99048.72;;;6.59;76.60
66880;BME280;53789;51.392;10.234;2023-05-25T01:56:58;99043.00;;;6.61;76.88
66880;BME280;53789;51.392;10.234;2023-05-25T01:57:21;99043.84;;;6.61;76.84
66880;BME280;53789;51.392;10.234;2023-05-25T01:57:49;99050.38;;;6.60;76.42
66880;BME280;53789;51.392;10.234;2023-05-25T01:58:13;99048.47;;;6.61;76.00
66880;BME280;53789;51.392;10.234;2023-05-25T01:58:39;99040.00;;;6.62;76.37
66880;BME280;53789;51.392;10.234;2023-05-25T01:59:02;99041.91;;;6.62;76.40
66880;BME280;53789;51.392;10.234;2023-05-25T01:59:28;99043.56;;;6.63;76.25
66880;BME280;53789;51.392;10.234;2023-05-25T01:59:52;99047.94;;;6.64;76.16
66880;BME280;53789;51.392;10.234;2023-05-25T02:00:15;99049.84;;;6.63;75.83
66880;BME280;53789;51.392;10.234;2023-05-25T02:00:39;99048.78;;;6.64;76.31
66880;BME280;53789;51.392;10.234;2023-05-25T02:01:00;99043.84;;;6.66;76.69
66880;BME280;53789;51.392;10.234;2023-05-25T02:01:21;99039.25;;;6.67;76.07
66880;BME280;53789;51.392;10.234;2023-05-25T02:01:43;99039.25;;;6.67;76.31
66880;BME280;53789;51.392;10.234;2023-05-25T02:02:04;99038.13;;;6.68;76.32
66880;BME280;53789;51.392;10.234;2023-05-25T02:02:26;99043.59;;;6.68;76.94